sensor_id;sensor_type;location;lat;lon;timestamp;temperature;humidity
44509;DHT22;30214;52.246;14.408;2023-03-13T00:00:58;5.50;99.90
44509;DHT22;30214;52.246;14.408;2023-03-13T00:03:27;5.60;99.90
44509;DHT22;30214;52.246;14.408;2023-03-13T00:05:55;5.70;99.90
44509;DHT22;30214;52.246;14.408;2023-03-13T00:08:23;5.70;99.90
44509;DHT22;30214;52.246;14.408;2023-03-13T00:10:50;5.70;99.90
44509;DHT22;30214;52.246;14.408;2023-03-13T00:13:17;5.70;99.90
44509;DHT22;30214;52.246;14.408;2023-03-13T00:15:46;5.70;99.90
44509;DHT22;30214;52.246;14.408;2023-03-13T00:18:13;5.70;99.90
44509;DHT22;30214;52.246;14.408;2023-03-13T00:20:40;5.70;99.90
44509;DHT22;30214;52.246;14.408;2023-03-13T00:23:07;5.70;99.90
44509;DHT22;30214;52.246;14.408;2023-03-13T00:25:34;5.80;99.90
44509;DHT22;30214;52.246;14.408;2023-03-13T00:28:01;5.70;99.90
44509;DHT22;30214;52.246;14.408;2023-03-13T00:30:28;5.80;99.90
44509;DHT22;30214;52.246;14.408;2023-03-13T00:32:57;5.70;99.90
44509;DHT22;30214;52.246;14.408;2023-03-13T00:35:24;5.70;99.90
44509;DHT22;30214;52.246;14.408;2023-03-13T00:37:52;5.80;99.90
44509;DHT22;30214;52.246;14.408;2023-03-13T00:40:19;5.80;99.90
44509;DHT22;30214;52.246;14.408;2023-03-13T00:42:46;5.80;99.90
44509;DHT22;30214;52.246;14.408;2023-03-13T00:45:13;5.80;99.90
44509;DHT22;30214;52.246;14.408;2023-03-13T00:47:40;5.90;99.90
44509;DHT22;30214;52.246;14.408;2023-03-13T00:50:10;5.80;99.90
44509;DHT22;30214;52.246;14.408;2023-03-13T00:52:37;5.90;99.90
44509;DHT22;30214;52.246;14.408;2023-03-13T00:55:05;5.80;99.90
44509;DHT22;30214;52.246;14.408;2023-03-13T00:57:33;5.90;99.90
44509;DHT22;30214;52.246;14.408;2023-03-13T01:00:03;5.90;99.90
44509;DHT22;30214;52.246;14.408;2023-03-13T01:02:31;6.00;99.90
44509;DHT22;30214;52.246;14.408;2023-03-13T01:04:59;6.00;99.90
44509;DHT22;30214;52.246;14.408;2023-03-13T01:07:28;6.00;99.90
44509;DHT22;30214;52.246;14.408;2023-03-13T01:09:55;6.00;99.90
44509;DHT22;30214;52.246;14.408;2023-03-13T01:12:22;6.00;99.90
44509;DHT22;30214;52.246;14.408;2023-03-13T01:14:49;6.10;99.90
44509;DHT22;30214;52.246;14.408;2023-03-13T01:17:16;6.10;99.90
44509;DHT22;30214;52.246;14.408;2023-03-13T01:19:46;6.10;99.90
44509;DHT22;30214;52.246;14.408;2023-03-13T01:22:14;6.10;99.90
44509;DHT22;30214;52.246;14.408;2023-03-13T01:24:43;6.20;99.90
44509;DHT22;30214;52.246;14.408;2023-03-13T01:27:10;6.20;99.90
44509;DHT22;30214;52.246;14.408;2023-03-13T01:29:38;6.20;99.90
44509;DHT22;30214;52.246;14.408;2023-03-13T01:32:05;6.20;99.90
44509;DHT22;30214;52.246;14.408;2023-03-13T01:34:33;6.20;99.90
44509;DHT22;30214;52.246;14.408;2023-03-13T01:37:01;6.20;99.90
44509;DHT22;30214;52.246;14.408;2023-03-13T01:39:28;6.20;99.90
44509;DHT22;30214;52.246;14.408;2023-03-13T01:41:56;6.20;99.90
44509;DHT22;30214;52.246;14.408;2023-03-13T01:44:25;6.10;99.90
44509;DHT22;30214;52.246;14.408;2023-03-13T01:46:53;6.20;99.90
44509;DHT22;30214;52.246;14.408;2023-03-13T01:49:26;6.20;99.90
44509;DHT22;30214;52.246;14.408;2023-03-13T01:52:23;6.20;99.90
44509;DHT22;30214;52.246;14.408;2023-03-13T01:55:01;6.20;99.90
44509;DHT22;30214;52.246;14.408;2023-03-13T01:57:33;6.30;99.90
44509;DHT22;30214;52.246;14.408;2023-03-13T02:00:05;6.30;99.90
44509;DHT22;30214;52.246;14.408;2023-03-13T02:02:44;6.30;99.90
44509;DHT22;30214;52.246;14.408;2023-03-13T02:05:14;6.40;99.90
44509;DHT22;30214;52.246;14.408;2023-03-13T02:07:46;6.40;99.90
44509;DHT22;30214;52.246;14.408;2023-03-13T02:10:16;6.30;99.90
44509;DHT22;30214;52.246;14.408;2023-03-13T02:12:46;6.40;99.90
44509;DHT22;30214;52.246;14.408;2023-03-13T02:15:16;6.40;99.90
44509;DHT22;30214;52.246;14.408;2023-03-13T02:17:46;6.40;99.90
44509;DHT22;30214;52.246;14.408;2023-03-13T02:20:16;6.40;99.90
44509;DHT22;30214;52.246;14.408;2023-03-13T02:22:50;6.40;99.90
44509;DHT22;30214;52.246;14.408;2023-03-13T02:25:35;6.30;99.90
44509;DHT22;30214;52.246;14.408;2023-03-13T02:28:08;6.40;99.90
44509;DHT22;30214;52.246;14.408;2023-03-13T02:30:39;6.40;99.90
44509;DHT22;30214;52.246;14.408;2023-03-13T02:33:08;6.40;99.90
44509;DHT22;30214;52.246;14.408;2023-03-13T02:35:37;6.40;99.90
44509;DHT22;30214;52.246;14.408;2023-03-13T02:38:11;6.40;99.90
44509;DHT22;30214;52.246;14.408;2023-03-13T02:40:44;6.30;99.90
44509;DHT22;30214;52.246;14.408;2023-03-13T02:43:16;6.30;99.90
44509;DHT22;30214;52.246;14.408;2023-03-13T02:46:00;6.30;99.90
44509;DHT22;30214;52.246;14.408;2023-03-13T02:48:35;6.30;99.90
44509;DHT22;30214;52.246;14.408;2023-03-13T02:51:06;6.30;99.90
44509;DHT22;30214;52.246;14.408;2023-03-13T02:53:38;6.40;99.90
44509;DHT22;30214;52.246;14.408;2023-03-13T02:56:07;6.40;99.90
44509;DHT22;30214;52.246;14.408;2023-03-13T02:58:39;6.40;99.90
44509;DHT22;30214;52.246;14.408;2023-03-13T03:01:06;6.40;99.90
44509;DHT22;30214;52.246;14.408;2023-03-13T03:03:37;6.40;99.90
44509;DHT22;30214;52.246;14.408;2023-03-13T03:06:05;6.40;99.90
44509;DHT22;30214;52.246;14.408;2023-03-13T03:08:34;6.50;99.90
44509;DHT22;30214;52.246;14.408;2023-03-13T03:11:04;6.50;99.90
44509;DHT22;30214;52.246;14.408;2023-03-13T03:13:32;6.50;99.90
44509;DHT22;30214;52.246;14.408;2023-03-13T03:16:05;6.50;99.90
44509;DHT22;30214;52.246;14.408;2023-03-13T03:18:32;6.50;99.90
44509;DHT22;30214;52.246;14.408;2023-03-13T03:21:01;6.50;99.90
44509;DHT22;30214;52.246;14.408;2023-03-13T03:23:31;6.60;99.90
44509;DHT22;30214;52.246;14.408;2023-03-13T03:25:59;6.60;99.90
44509;DHT22;30214;52.246;14.408;2023-03-13T03:28:26;6.60;99.90
44509;DHT22;30214;52.246;14.408;2023-03-13T03:30:55;6.60;99.90
44509;DHT22;30214;52.246;14.408;2023-03-13T03:33:23;6.70;99.90
44509;DHT22;30214;52.246;14.408;2023-03-13T03:35:50;6.80;99.90
44509;DHT22;30214;52.246;14.408;2023-03-13T03:38:17;6.70;99.90
44509;DHT22;30214;52.246;14.408;2023-03-13T03:40:44;6.80;99.90
44509;DHT22;30214;52.246;14.408;2023-03-13T03:43:11;6.80;99.90
44509;DHT22;30214;52.246;14.408;2023-03-13T03:45:40;6.70;99.90
44509;DHT22;30214;52.246;14.408;2023-03-13T03:48:08;6.70;99.90
44509;DHT22;30214;52.246;14.408;2023-03-13T03:50:35;6.70;99.90
44509;DHT22;30214;52.246;14.408;2023-03-13T03:53:03;6.70;99.90
44509;DHT22;30214;52.246;14.408;2023-03-13T03:55:30;6.80;99.90
44509;DHT22;30214;52.246;14.408;2023-03-13T03:57:57;6.80;99.90
44509;DHT22;30214;52.246;14.408;2023-03-13T04:00:43;6.80;99.90
44509;DHT22;30214;52.246;14.408;2023-03-13T04:03:13;6.80;99.90
44509;DHT22;30214;52.246;14.408;2023-03-13T04:05:41;6.80;99.90
44509;DHT22;30214;52.246;14.408;2023-03-13T04:08:09;6.90;99.90
44509;DHT22;30214;52.246;14.408;2023-03-13T04:10:36;6.90;99.90
44509;DHT22;30214;52.246;14.408;2023-03-13T04:13:04;6.90;99.90
44509;DHT22;30214;52.246;14.408;2023-03-13T04:15:31;6.90;99.90
44509;DHT22;30214;52.246;14.408;2023-03-13T04:17:58;6.90;99.90
44509;DHT22;30214;52.246;14.408;2023-03-13T04:20:27;6.90;99.90
44509;DHT22;30214;52.246;14.408;2023-03-13T04:22:54;6.90;99.90
44509;DHT22;30214;52.246;14.408;2023-03-13T04:25:22;7.00;99.90
44509;DHT22;30214;52.246;14.408;2023-03-13T04:27:51;7.00;99.90
44509;DHT22;30214;52.246;14.408;2023-03-13T04:30:21;7.00;99.90
44509;DHT22;30214;52.246;14.408;2023-03-13T04:33:04;7.00;99.90
44509;DHT22;30214;52.246;14.408;2023-03-13T04:35:47;7.00;99.90
44509;DHT22;30214;52.246;14.408;2023-03-13T04:38:20;7.00;99.90
44509;DHT22;30214;52.246;14.408;2023-03-13T04:41:16;7.00;99.90
44509;DHT22;30214;52.246;14.408;2023-03-13T04:43:58;7.00;99.90
44509;DHT22;30214;52.246;14.408;2023-03-13T04:46:35;7.00;99.90
44509;DHT22;30214;52.246;14.408;2023-03-13T04:49:23;7.00;99.90
44509;DHT22;30214;52.246;14.408;2023-03-13T04:52:00;7.20;99.90
44509;DHT22;30214;52.246;14.408;2023-03-13T04:54:46;7.10;99.90
44509;DHT22;30214;52.246;14.408;2023-03-13T04:57:34;7.20;99.90
44509;DHT22;30214;52.246;14.408;2023-03-13T05:00:12;7.20;99.90
44509;DHT22;30214;52.246;14.408;2023-03-13T05:02:52;7.10;99.90
44509;DHT22;30214;52.246;14.408;2023-03-13T05:05:27;7.10;99.90
44509;DHT22;30214;52.246;14.408;2023-03-13T05:08:16;7.10;99.90
44509;DHT22;30214;52.246;14.408;2023-03-13T05:10:55;7.00;99.90
44509;DHT22;30214;52.246;14.408;2023-03-13T05:13:41;7.00;99.90
44509;DHT22;30214;52.246;14.408;2023-03-13T05:16:26;7.10;99.90
44509;DHT22;30214;52.246;14.408;2023-03-13T05:19:13;7.10;99.90
44509;DHT22;30214;52.246;14.408;2023-03-13T05:22:00;7.20;99.90
44509;DHT22;30214;52.246;14.408;2023-03-13T05:24:49;7.20;99.90
44509;DHT22;30214;52.246;14.408;2023-03-13T05:27:34;7.10;99.90
44509;DHT22;30214;52.246;14.408;2023-03-13T05:30:14;7.10;99.90
44509;DHT22;30214;52.246;14.408;2023-03-13T05:32:56;7.20;99.90
44509;DHT22;30214;52.246;14.408;2023-03-13T05:35:39;7.30;99.90
44509;DHT22;30214;52.246;14.408;2023-03-13T05:38:34;7.30;99.90
44509;DHT22;30214;52.246;14.408;2023-03-13T05:41:11;7.20;99.90
44509;DHT22;30214;52.246;14.408;2023-03-13T05:44:17;7.20;99.90
44509;DHT22;30214;52.246;14.408;2023-03-13T05:47:20;7.20;99.90
44509;DHT22;30214;52.246;14.408;2023-03-13T05:50:11;7.20;99.90
44509;DHT22;30214;52.246;14.408;2023-03-13T05:52:57;7.10;99.90
44509;DHT22;30214;52.246;14.408;2023-03-13T05:55:32;7.10;99.90
44509;DHT22;30214;52.246;14.408;2023-03-13T05:58:19;7.10;99.90
44509;DHT22;30214;52.246;14.408;2023-03-13T06:01:07;7.10;99.90
44509;DHT22;30214;52.246;14.408;2023-03-13T06:03:59;7.20;99.90
44509;DHT22;30214;52.246;14.408;2023-03-13T06:06:27;7.20;99.90
44509;DHT22;30214;52.246;14.408;2023-03-13T06:08:55;7.30;99.90
44509;DHT22;30214;52.246;14.408;2023-03-13T06:11:26;7.30;99.90
44509;DHT22;30214;52.246;14.408;2023-03-13T06:13:55;7.30;99.90
44509;DHT22;30214;52.246;14.408;2023-03-13T06:16:32;7.40;99.90
44509;DHT22;30214;52.246;14.408;2023-03-13T06:19:17;7.40;99.90
44509;DHT22;30214;52.246;14.408;2023-03-13T06:21:45;7.50;99.90
44509;DHT22;30214;52.246;14.408;2023-03-13T06:24:12;7.50;99.90
44509;DHT22;30214;52.246;14.408;2023-03-13T06:26:39;7.60;99.90
44509;DHT22;30214;52.246;14.408;2023-03-13T06:29:08;7.60;99.90
44509;DHT22;30214;52.246;14.408;2023-03-13T06:31:35;7.60;99.90
44509;DHT22;30214;52.246;14.408;2023-03-13T06:34:02;7.70;99.90
44509;DHT22;30214;52.246;14.408;2023-03-13T06:36:30;7.70;99.90
44509;DHT22;30214;52.246;14.408;2023-03-13T06:38:57;7.80;99.90
44509;DHT22;30214;52.246;14.408;2023-03-13T06:41:24;7.80;99.90
44509;DHT22;30214;52.246;14.408;2023-03-13T06:43:52;7.80;99.90
44509;DHT22;30214;52.246;14.408;2023-03-13T06:46:22;7.90;99.90
44509;DHT22;30214;52.246;14.408;2023-03-13T06:48:50;7.90;99.90
44509;DHT22;30214;52.246;14.408;2023-03-13T06:51:19;7.90;99.90
44509;DHT22;30214;52.246;14.408;2023-03-13T06:53:47;8.00;99.90
44509;DHT22;30214;52.246;14.408;2023-03-13T06:56:17;7.90;99.90
44509;DHT22;30214;52.246;14.408;2023-03-13T06:58:46;8.00;99.90
44509;DHT22;30214;52.246;14.408;2023-03-13T07:01:15;8.10;99.90
44509;DHT22;30214;52.246;14.408;2023-03-13T07:03:46;8.20;99.90
44509;DHT22;30214;52.246;14.408;2023-03-13T07:06:14;8.30;99.90
44509;DHT22;30214;52.246;14.408;2023-03-13T07:08:43;8.40;99.90
44509;DHT22;30214;52.246;14.408;2023-03-13T07:11:12;8.40;99.90
44509;DHT22;30214;52.246;14.408;2023-03-13T07:13:39;8.40;99.90
44509;DHT22;30214;52.246;14.408;2023-03-13T07:16:08;8.50;99.90
44509;DHT22;30214;52.246;14.408;2023-03-13T07:18:36;8.50;99.90
44509;DHT22;30214;52.246;14.408;2023-03-13T07:21:08;8.50;99.90
44509;DHT22;30214;52.246;14.408;2023-03-13T07:23:35;8.50;99.90
44509;DHT22;30214;52.246;14.408;2023-03-13T07:26:05;8.60;99.90
44509;DHT22;30214;52.246;14.408;2023-03-13T07:28:33;8.60;99.90
44509;DHT22;30214;52.246;14.408;2023-03-13T07:31:04;8.60;99.90
44509;DHT22;30214;52.246;14.408;2023-03-13T07:33:32;8.60;99.90
44509;DHT22;30214;52.246;14.408;2023-03-13T07:35:59;8.60;99.90
44509;DHT22;30214;52.246;14.408;2023-03-13T07:38:27;8.60;99.90
44509;DHT22;30214;52.246;14.408;2023-03-13T07:40:55;8.60;99.90
44509;DHT22;30214;52.246;14.408;2023-03-13T07:43:23;8.60;99.90
44509;DHT22;30214;52.246;14.408;2023-03-13T07:45:52;8.60;99.90
44509;DHT22;30214;52.246;14.408;2023-03-13T07:48:20;8.70;99.90
44509;DHT22;30214;52.246;14.408;2023-03-13T07:50:48;8.70;99.90
44509;DHT22;30214;52.246;14.408;2023-03-13T07:53:16;8.80;99.90
44509;DHT22;30214;52.246;14.408;2023-03-13T07:55:55;8.80;99.90
44509;DHT22;30214;52.246;14.408;2023-03-13T07:58:24;8.80;99.90
44509;DHT22;30214;52.246;14.408;2023-03-13T08:00:53;8.80;99.90
44509;DHT22;30214;52.246;14.408;2023-03-13T08:03:21;8.80;99.90
44509;DHT22;30214;52.246;14.408;2023-03-13T08:05:57;8.80;99.90
44509;DHT22;30214;52.246;14.408;2023-03-13T08:08:24;8.80;99.90
44509;DHT22;30214;52.246;14.408;2023-03-13T08:10:52;8.90;99.90
44509;DHT22;30214;52.246;14.408;2023-03-13T08:13:24;8.90;99.90
44509;DHT22;30214;52.246;14.408;2023-03-13T08:15:51;8.90;99.90
44509;DHT22;30214;52.246;14.408;2023-03-13T08:18:18;8.90;99.90
44509;DHT22;30214;52.246;14.408;2023-03-13T08:20:45;8.90;99.90
44509;DHT22;30214;52.246;14.408;2023-03-13T08:23:12;8.90;99.90
44509;DHT22;30214;52.246;14.408;2023-03-13T08:25:39;8.90;99.90
44509;DHT22;30214;52.246;14.408;2023-03-13T08:28:07;8.80;99.90
44509;DHT22;30214;52.246;14.408;2023-03-13T08:30:35;8.80;99.90
44509;DHT22;30214;52.246;14.408;2023-03-13T08:33:02;8.70;99.90
44509;DHT22;30214;52.246;14.408;2023-03-13T08:35:29;8.70;99.90
44509;DHT22;30214;52.246;14.408;2023-03-13T08:37:56;8.70;99.90
44509;DHT22;30214;52.246;14.408;2023-03-13T08:40:23;8.70;99.90
44509;DHT22;30214;52.246;14.408;2023-03-13T08:42:50;8.70;99.90
44509;DHT22;30214;52.246;14.408;2023-03-13T08:45:18;8.60;99.90
44509;DHT22;30214;52.246;14.408;2023-03-13T08:47:45;8.50;99.90
44509;DHT22;30214;52.246;14.408;2023-03-13T08:50:12;8.50;99.90
44509;DHT22;30214;52.246;14.408;2023-03-13T08:52:42;8.50;99.90
44509;DHT22;30214;52.246;14.408;2023-03-13T08:55:09;8.50;99.90
44509;DHT22;30214;52.246;14.408;2023-03-13T08:57:36;8.50;99.90
44509;DHT22;30214;52.246;14.408;2023-03-13T09:00:04;8.40;99.90
44509;DHT22;30214;52.246;14.408;2023-03-13T09:02:33;8.50;99.90
44509;DHT22;30214;52.246;14.408;2023-03-13T09:05:00;8.50;99.90
44509;DHT22;30214;52.246;14.408;2023-03-13T09:07:28;8.50;99.90
44509;DHT22;30214;52.246;14.408;2023-03-13T09:09:55;8.50;99.90
44509;DHT22;30214;52.246;14.408;2023-03-13T09:12:22;8.50;99.90
44509;DHT22;30214;52.246;14.408;2023-03-13T09:14:49;8.50;99.90
44509;DHT22;30214;52.246;14.408;2023-03-13T09:17:16;8.50;99.90
44509;DHT22;30214;52.246;14.408;2023-03-13T09:19:44;8.60;99.90
44509;DHT22;30214;52.246;14.408;2023-03-13T09:22:11;8.60;99.90
44509;DHT22;30214;52.246;14.408;2023-03-13T09:24:39;8.60;99.90
44509;DHT22;30214;52.246;14.408;2023-03-13T09:27:07;8.60;99.90
44509;DHT22;30214;52.246;14.408;2023-03-13T09:29:34;8.60;99.90
44509;DHT22;30214;52.246;14.408;2023-03-13T09:32:05;8.70;99.90
44509;DHT22;30214;52.246;14.408;2023-03-13T09:34:32;8.70;99.90
44509;DHT22;30214;52.246;14.408;2023-03-13T09:37:00;8.70;99.90
44509;DHT22;30214;52.246;14.408;2023-03-13T09:39:27;8.70;99.90
44509;DHT22;30214;52.246;14.408;2023-03-13T09:42:01;8.70;99.90
44509;DHT22;30214;52.246;14.408;2023-03-13T09:44:36;8.80;99.90
44509;DHT22;30214;52.246;14.408;2023-03-13T09:47:11;8.70;99.90
44509;DHT22;30214;52.246;14.408;2023-03-13T09:49:45;8.80;99.90
44509;DHT22;30214;52.246;14.408;2023-03-13T09:52:18;8.80;99.90
44509;DHT22;30214;52.246;14.408;2023-03-13T09:54:51;8.80;99.90
44509;DHT22;30214;52.246;14.408;2023-03-13T09:57:30;8.80;99.90
44509;DHT22;30214;52.246;14.408;2023-03-13T10:00:02;8.80;99.90
44509;DHT22;30214;52.246;14.408;2023-03-13T10:02:36;8.90;99.90
44509;DHT22;30214;52.246;14.408;2023-03-13T10:05:09;8.90;99.90
44509;DHT22;30214;52.246;14.408;2023-03-13T10:07:40;8.90;99.90
44509;DHT22;30214;52.246;14.408;2023-03-13T10:10:13;8.90;99.90
44509;DHT22;30214;52.246;14.408;2023-03-13T10:12:44;8.90;99.90
44509;DHT22;30214;52.246;14.408;2023-03-13T10:15:29;9.00;99.90
44509;DHT22;30214;52.246;14.408;2023-03-13T10:18:09;9.10;99.90
44509;DHT22;30214;52.246;14.408;2023-03-13T10:20:39;9.10;99.90
44509;DHT22;30214;52.246;14.408;2023-03-13T10:23:12;9.10;99.90
44509;DHT22;30214;52.246;14.408;2023-03-13T10:25:42;9.20;99.90
44509;DHT22;30214;52.246;14.408;2023-03-13T10:28:10;9.10;99.90
44509;DHT22;30214;52.246;14.408;2023-03-13T10:30:43;9.20;99.90
44509;DHT22;30214;52.246;14.408;2023-03-13T10:33:24;9.20;99.90
44509;DHT22;30214;52.246;14.408;2023-03-13T10:36:02;9.20;99.90
44509;DHT22;30214;52.246;14.408;2023-03-13T10:38:34;9.20;99.90
44509;DHT22;30214;52.246;14.408;2023-03-13T10:41:23;9.20;99.90
44509;DHT22;30214;52.246;14.408;2023-03-13T10:43:53;9.30;99.90
44509;DHT22;30214;52.246;14.408;2023-03-13T10:46:27;9.30;99.90
44509;DHT22;30214;52.246;14.408;2023-03-13T10:48:56;9.30;99.90
44509;DHT22;30214;52.246;14.408;2023-03-13T10:51:33;9.30;99.90
44509;DHT22;30214;52.246;14.408;2023-03-13T10:54:13;9.40;99.90
44509;DHT22;30214;52.246;14.408;2023-03-13T10:56:41;9.50;99.90
44509;DHT22;30214;52.246;14.408;2023-03-13T10:59:20;9.50;99.90
44509;DHT22;30214;52.246;14.408;2023-03-13T11:01:50;9.60;99.90
44509;DHT22;30214;52.246;14.408;2023-03-13T11:04:19;9.70;99.90
44509;DHT22;30214;52.246;14.408;2023-03-13T11:06:58;9.80;99.90
44509;DHT22;30214;52.246;14.408;2023-03-13T11:09:29;9.90;99.90
44509;DHT22;30214;52.246;14.408;2023-03-13T11:12:02;9.90;99.90
44509;DHT22;30214;52.246;14.408;2023-03-13T11:14:30;10.00;99.90
44509;DHT22;30214;52.246;14.408;2023-03-13T11:17:03;10.00;99.90
44509;DHT22;30214;52.246;14.408;2023-03-13T11:20:07;10.10;99.90
44509;DHT22;30214;52.246;14.408;2023-03-13T11:22:50;10.20;99.90
44509;DHT22;30214;52.246;14.408;2023-03-13T11:25:29;10.40;99.90
44509;DHT22;30214;52.246;14.408;2023-03-13T11:28:10;10.50;99.90
44509;DHT22;30214;52.246;14.408;2023-03-13T11:30:54;10.50;99.90
44509;DHT22;30214;52.246;14.408;2023-03-13T11:33:34;10.60;99.90
44509;DHT22;30214;52.246;14.408;2023-03-13T11:36:14;10.60;99.90
44509;DHT22;30214;52.246;14.408;2023-03-13T11:38:48;10.70;99.90
44509;DHT22;30214;52.246;14.408;2023-03-13T11:41:31;10.80;99.90
44509;DHT22;30214;52.246;14.408;2023-03-13T11:44:18;10.90;99.90
44509;DHT22;30214;52.246;14.408;2023-03-13T11:47:04;10.90;99.90
44509;DHT22;30214;52.246;14.408;2023-03-13T11:49:55;10.90;99.90
44509;DHT22;30214;52.246;14.408;2023-03-13T11:52:42;11.00;99.90
44509;DHT22;30214;52.246;14.408;2023-03-13T11:55:24;11.10;99.90
44509;DHT22;30214;52.246;14.408;2023-03-13T11:58:13;11.10;99.90
44509;DHT22;30214;52.246;14.408;2023-03-13T12:00:56;11.30;99.90
44509;DHT22;30214;52.246;14.408;2023-03-13T12:03:33;11.40;99.90
44509;DHT22;30214;52.246;14.408;2023-03-13T12:06:04;11.50;99.90
44509;DHT22;30214;52.246;14.408;2023-03-13T12:08:37;11.60;99.90
44509;DHT22;30214;52.246;14.408;2023-03-13T12:11:13;11.60;99.90
44509;DHT22;30214;52.246;14.408;2023-03-13T12:13:46;11.70;99.90
44509;DHT22;30214;52.246;14.408;2023-03-13T12:16:20;11.80;99.90
44509;DHT22;30214;52.246;14.408;2023-03-13T12:18:51;11.90;99.90
44509;DHT22;30214;52.246;14.408;2023-03-13T12:21:21;11.90;99.90
44509;DHT22;30214;52.246;14.408;2023-03-13T12:23:57;12.10;99.90
44509;DHT22;30214;52.246;14.408;2023-03-13T12:26:34;12.10;99.90
44509;DHT22;30214;52.246;14.408;2023-03-13T12:29:11;12.20;99.90
44509;DHT22;30214;52.246;14.408;2023-03-13T12:31:42;12.20;99.90
44509;DHT22;30214;52.246;14.408;2023-03-13T12:34:17;12.20;99.90
44509;DHT22;30214;52.246;14.408;2023-03-13T12:36:47;12.40;99.90
44509;DHT22;30214;52.246;14.408;2023-03-13T12:39:27;12.40;99.90
44509;DHT22;30214;52.246;14.408;2023-03-13T12:42:11;12.60;99.90
44509;DHT22;30214;52.246;14.408;2023-03-13T12:44:45;12.70;99.90
44509;DHT22;30214;52.246;14.408;2023-03-13T12:47:16;12.70;99.90
44509;DHT22;30214;52.246;14.408;2023-03-13T12:50:06;12.90;99.90
44509;DHT22;30214;52.246;14.408;2023-03-13T12:56:28;12.90;99.90
44509;DHT22;30214;52.246;14.408;2023-03-13T12:59:02;13.10;99.90
44509;DHT22;30214;52.246;14.408;2023-03-13T13:01:34;13.10;99.90
44509;DHT22;30214;52.246;14.408;2023-03-13T13:04:06;13.20;99.90
44509;DHT22;30214;52.246;14.408;2023-03-13T13:06:52;13.20;99.90
44509;DHT22;30214;52.246;14.408;2023-03-13T13:09:24;13.30;99.90
44509;DHT22;30214;52.246;14.408;2023-03-13T13:11:54;13.30;99.90
44509;DHT22;30214;52.246;14.408;2023-03-13T13:14:57;13.30;99.90
44509;DHT22;30214;52.246;14.408;2023-03-13T13:20:41;13.40;99.90
44509;DHT22;30214;52.246;14.408;2023-03-13T13:23:28;13.40;99.90
44509;DHT22;30214;52.246;14.408;2023-03-13T13:32:42;13.60;99.90
44509;DHT22;30214;52.246;14.408;2023-03-13T13:35:35;13.60;99.90
44509;DHT22;30214;52.246;14.408;2023-03-13T13:38:26;13.50;99.90
44509;DHT22;30214;52.246;14.408;2023-03-13T13:41:02;13.50;99.90
44509;DHT22;30214;52.246;14.408;2023-03-13T13:43:35;13.60;99.90
44509;DHT22;30214;52.246;14.408;2023-03-13T13:46:23;13.60;99.90
44509;DHT22;30214;52.246;14.408;2023-03-13T13:49:14;13.70;99.90
44509;DHT22;30214;52.246;14.408;2023-03-13T13:52:33;13.80;99.90
44509;DHT22;30214;52.246;14.408;2023-03-13T13:57:58;14.10;99.90
44509;DHT22;30214;52.246;14.408;2023-03-13T14:00:27;14.40;99.90
44509;DHT22;30214;52.246;14.408;2023-03-13T14:03:00;14.50;99.90
44509;DHT22;30214;52.246;14.408;2023-03-13T14:05:30;14.60;99.90
44509;DHT22;30214;52.246;14.408;2023-03-13T14:08:02;14.70;99.90
44509;DHT22;30214;52.246;14.408;2023-03-13T14:10:34;14.70;99.90
44509;DHT22;30214;52.246;14.408;2023-03-13T14:13:12;14.80;99.90
44509;DHT22;30214;52.246;14.408;2023-03-13T14:15:42;14.80;99.90
44509;DHT22;30214;52.246;14.408;2023-03-13T14:18:16;14.70;99.90
44509;DHT22;30214;52.246;14.408;2023-03-13T14:20:56;14.70;99.90
44509;DHT22;30214;52.246;14.408;2023-03-13T14:23:30;14.60;99.90
44509;DHT22;30214;52.246;14.408;2023-03-13T14:26:13;14.50;99.90
44509;DHT22;30214;52.246;14.408;2023-03-13T14:28:44;14.60;99.90
44509;DHT22;30214;52.246;14.408;2023-03-13T14:31:27;14.60;99.90
44509;DHT22;30214;52.246;14.408;2023-03-13T14:33:56;14.60;99.90
44509;DHT22;30214;52.246;14.408;2023-03-13T14:36:27;14.60;99.90
44509;DHT22;30214;52.246;14.408;2023-03-13T14:38:56;14.60;99.90
44509;DHT22;30214;52.246;14.408;2023-03-13T14:41:28;14.60;99.90
44509;DHT22;30214;52.246;14.408;2023-03-13T14:44:04;14.60;99.90
44509;DHT22;30214;52.246;14.408;2023-03-13T14:46:34;14.60;99.90
44509;DHT22;30214;52.246;14.408;2023-03-13T14:49:11;14.60;99.90
44509;DHT22;30214;52.246;14.408;2023-03-13T14:51:43;14.60;99.90
44509;DHT22;30214;52.246;14.408;2023-03-13T14:54:28;14.60;99.90
44509;DHT22;30214;52.246;14.408;2023-03-13T14:57:14;14.60;99.90
44509;DHT22;30214;52.246;14.408;2023-03-13T14:59:45;14.70;99.90
44509;DHT22;30214;52.246;14.408;2023-03-13T15:02:18;14.70;99.90
44509;DHT22;30214;52.246;14.408;2023-03-13T15:04:47;14.70;99.90
44509;DHT22;30214;52.246;14.408;2023-03-13T15:07:17;14.70;99.90
44509;DHT22;30214;52.246;14.408;2023-03-13T15:09:45;14.70;99.90
44509;DHT22;30214;52.246;14.408;2023-03-13T15:12:14;14.80;99.90
44509;DHT22;30214;52.246;14.408;2023-03-13T15:14:44;14.80;99.90
44509;DHT22;30214;52.246;14.408;2023-03-13T15:17:15;14.80;99.90
44509;DHT22;30214;52.246;14.408;2023-03-13T15:19:47;14.90;99.90
44509;DHT22;30214;52.246;14.408;2023-03-13T15:22:18;14.90;99.90
44509;DHT22;30214;52.246;14.408;2023-03-13T15:24:50;15.00;99.90
44509;DHT22;30214;52.246;14.408;2023-03-13T15:27:19;15.10;99.90
44509;DHT22;30214;52.246;14.408;2023-03-13T15:29:48;15.10;99.90
44509;DHT22;30214;52.246;14.408;2023-03-13T15:32:21;15.10;99.90
44509;DHT22;30214;52.246;14.408;2023-03-13T15:34:50;15.10;99.90
44509;DHT22;30214;52.246;14.408;2023-03-13T15:37:19;15.00;99.90
44509;DHT22;30214;52.246;14.408;2023-03-13T15:39:46;14.90;99.90
44509;DHT22;30214;52.246;14.408;2023-03-13T15:42:14;14.90;99.90
44509;DHT22;30214;52.246;14.408;2023-03-13T15:44:41;14.80;99.90
44509;DHT22;30214;52.246;14.408;2023-03-13T15:47:09;14.80;99.90
44509;DHT22;30214;52.246;14.408;2023-03-13T15:49:36;14.70;99.90
44509;DHT22;30214;52.246;14.408;2023-03-13T15:52:08;14.70;99.90
44509;DHT22;30214;52.246;14.408;2023-03-13T15:54:43;14.70;99.90
44509;DHT22;30214;52.246;14.408;2023-03-13T15:57:11;14.70;99.90
44509;DHT22;30214;52.246;14.408;2023-03-13T15:59:40;14.70;99.90
44509;DHT22;30214;52.246;14.408;2023-03-13T16:02:13;14.70;99.90
44509;DHT22;30214;52.246;14.408;2023-03-13T16:04:41;14.70;99.90
44509;DHT22;30214;52.246;14.408;2023-03-13T16:07:09;14.60;99.90
44509;DHT22;30214;52.246;14.408;2023-03-13T16:09:37;14.60;99.90
44509;DHT22;30214;52.246;14.408;2023-03-13T16:12:06;14.60;99.90
44509;DHT22;30214;52.246;14.408;2023-03-13T16:14:33;14.60;99.90
44509;DHT22;30214;52.246;14.408;2023-03-13T16:17:01;14.50;99.90
44509;DHT22;30214;52.246;14.408;2023-03-13T16:19:29;14.50;99.90